sensor_id;sensor_type;location;lat;lon;timestamp;pressure;altitude;pressure_sealevel;temperature;humidity
27358;BME280;14831;50.474;7.616;2024-01-10T00:02:47;98990;;;-6.8;57.0
27358;BME280;14831;50.474;7.616;2024-01-10T00:07:47;98980;;;-6.8;57.6
27358;BME280;14831;50.474;7.616;2024-01-10T00:12:47;98980;;;-6.9;58.5
27358;BME280;14831;50.474;7.616;2024-01-10T00:17:50;98980;;;-6.8;58.4
27358;BME280;14831;50.474;7.616;2024-01-10T00:22:47;98980;;;-6.9;58.6
27358;BME280;14831;50.474;7.616;2024-01-10T00:27:47;98980;;;-6.9;58.8
27358;BME280;14831;50.474;7.616;2024-01-10T00:32:47;98970;;;-6.9;58.4
27358;BME280;14831;50.474;7.616;2024-01-10T00:37:48;98970;;;-6.9;58.8
27358;BME280;14831;50.474;7.616;2024-01-10T00:42:47;98970;;;-6.9;59.2
27358;BME280;14831;50.474;7.616;2024-01-10T00:47:48;98960;;;-6.9;58.2
27358;BME280;14831;50.474;7.616;2024-01-10T00:52:47;98960;;;-7.0;59.1
27358;BME280;14831;50.474;7.616;2024-01-10T00:57:47;98960;;;-7.0;59.3
27358;BME280;14831;50.474;7.616;2024-01-10T01:02:47;98970;;;-7.0;60.2
27358;BME280;14831;50.474;7.616;2024-01-10T01:07:47;98960;;;-7.0;60.2
27358;BME280;14831;50.474;7.616;2024-01-10T01:12:47;98960;;;-7.0;60.1
27358;BME280;14831;50.474;7.616;2024-01-10T01:17:47;98950;;;-7.0;59.8
27358;BME280;14831;50.474;7.616;2024-01-10T01:22:47;98960;;;-7.1;59.6
27358;BME280;14831;50.474;7.616;2024-01-10T01:27:47;98970;;;-7.1;59.1
27358;BME280;14831;50.474;7.616;2024-01-10T01:32:47;98970;;;-7.2;59.1
27358;BME280;14831;50.474;7.616;2024-01-10T01:37:47;98970;;;-7.3;59.5
27358;BME280;14831;50.474;7.616;2024-01-10T01:42:47;98960;;;-7.3;59.6
27358;BME280;14831;50.474;7.616;2024-01-10T01:47:47;98970;;;-7.2;59.3
27358;BME280;14831;50.474;7.616;2024-01-10T01:52:47;98950;;;-7.2;60.6
27358;BME280;14831;50.474;7.616;2024-01-10T01:57:47;98960;;;-7.1;60.3
27358;BME280;14831;50.474;7.616;2024-01-10T02:02:47;98950;;;-7.1;60.2
27358;BME280;14831;50.474;7.616;2024-01-10T02:07:47;98960;;;-7.1;59.7
27358;BME280;14831;50.474;7.616;2024-01-10T02:12:47;98950;;;-7.1;59.9
27358;BME280;14831;50.474;7.616;2024-01-10T02:17:47;98950;;;-7.1;60.2
27358;BME280;14831;50.474;7.616;2024-01-10T02:22:50;98950;;;-7.1;60.4
27358;BME280;14831;50.474;7.616;2024-01-10T02:27:47;98950;;;-7.2;60.1
27358;BME280;14831;50.474;7.616;2024-01-10T02:32:47;98930;;;-7.2;60.8
27358;BME280;14831;50.474;7.616;2024-01-10T02:37:47;98940;;;-7.2;60.6
27358;BME280;14831;50.474;7.616;2024-01-10T02:42:47;98940;;;-7.3;60.6
27358;BME280;14831;50.474;7.616;2024-01-10T02:47:47;98950;;;-7.4;60.8
27358;BME280;14831;50.474;7.616;2024-01-10T02:52:47;98950;;;-7.4;61.0
27358;BME280;14831;50.474;7.616;2024-01-10T02:57:47;98940;;;-7.4;61.7
27358;BME280;14831;50.474;7.616;2024-01-10T03:02:47;98940;;;-7.5;62.3
27358;BME280;14831;50.474;7.616;2024-01-10T03:07:47;98940;;;-7.5;62.7
27358;BME280;14831;50.474;7.616;2024-01-10T03:12:47;98930;;;-7.6;63.4
27358;BME280;14831;50.474;7.616;2024-01-10T03:17:47;98930;;;-7.6;64.5
27358;BME280;14831;50.474;7.616;2024-01-10T03:22:47;98920;;;-7.6;64.7
27358;BME280;14831;50.474;7.616;2024-01-10T03:27:47;98920;;;-7.7;65.0
27358;BME280;14831;50.474;7.616;2024-01-10T03:32:47;98920;;;-7.7;64.5
27358;BME280;14831;50.474;7.616;2024-01-10T03:37:47;98920;;;-7.7;65.1
27358;BME280;14831;50.474;7.616;2024-01-10T03:42:47;98920;;;-7.8;65.4
27358;BME280;14831;50.474;7.616;2024-01-10T03:47:47;98910;;;-7.8;65.8
27358;BME280;14831;50.474;7.616;2024-01-10T03:52:47;98900;;;-7.9;66.0
27358;BME280;14831;50.474;7.616;2024-01-10T03:57:47;98910;;;-7.9;66.2
27358;BME280;14831;50.474;7.616;2024-01-10T04:02:47;98910;;;-7.9;66.1
27358;BME280;14831;50.474;7.616;2024-01-10T04:07:47;98910;;;-8.0;66.0
27358;BME280;14831;50.474;7.616;2024-01-10T04:12:47;98920;;;-8.0;65.8
27358;BME280;14831;50.474;7.616;2024-01-10T04:17:47;98930;;;-8.1;66.0
27358;BME280;14831;50.474;7.616;2024-01-10T04:22:47;98930;;;-8.2;66.3
27358;BME280;14831;50.474;7.616;2024-01-10T04:27:49;98930;;;-8.3;66.1
27358;BME280;14831;50.474;7.616;2024-01-10T04:32:47;98950;;;-8.3;66.5
27358;BME280;14831;50.474;7.616;2024-01-10T04:37:47;98940;;;-8.3;66.8
27358;BME280;14831;50.474;7.616;2024-01-10T04:42:47;98940;;;-8.4;67.2
27358;BME280;14831;50.474;7.616;2024-01-10T04:47:48;98930;;;-8.4;67.7
27358;BME280;14831;50.474;7.616;2024-01-10T04:52:47;98930;;;-8.3;68.2
27358;BME280;14831;50.474;7.616;2024-01-10T04:57:47;98930;;;-8.3;68.6
27358;BME280;14831;50.474;7.616;2024-01-10T05:02:47;98930;;;-8.3;69.1
27358;BME280;14831;50.474;7.616;2024-01-10T05:07:47;98920;;;-8.3;69.1
27358;BME280;14831;50.474;7.616;2024-01-10T05:12:47;98910;;;-8.3;69.2
27358;BME280;14831;50.474;7.616;2024-01-10T05:17:47;98910;;;-8.3;68.9
27358;BME280;14831;50.474;7.616;2024-01-10T05:22:47;98890;;;-8.3;69.2
27358;BME280;14831;50.474;7.616;2024-01-10T05:27:47;98890;;;-8.2;69.6
27358;BME280;14831;50.474;7.616;2024-01-10T05:32:47;98890;;;-8.2;70.2
27358;BME280;14831;50.474;7.616;2024-01-10T05:37:47;98900;;;-8.3;69.6
27358;BME280;14831;50.474;7.616;2024-01-10T05:42:47;98910;;;-8.3;69.2
27358;BME280;14831;50.474;7.616;2024-01-10T05:47:47;98910;;;-8.4;69.2
27358;BME280;14831;50.474;7.616;2024-01-10T05:52:47;98900;;;-8.4;69.5
27358;BME280;14831;50.474;7.616;2024-01-10T05:57:47;98890;;;-8.4;69.8
27358;BME280;14831;50.474;7.616;2024-01-10T06:02:47;98890;;;-8.3;70.6
27358;BME280;14831;50.474;7.616;2024-01-10T06:07:47;98900;;;-8.3;70.1
27358;BME280;14831;50.474;7.616;2024-01-10T06:12:51;98900;;;-8.3;70.1
27358;BME280;14831;50.474;7.616;2024-01-10T06:17:47;98890;;;-8.3;70.1
27358;BME280;14831;50.474;7.616;2024-01-10T06:22:47;98890;;;-8.2;70.0
27358;BME280;14831;50.474;7.616;2024-01-10T06:27:47;98890;;;-8.2;69.8
27358;BME280;14831;50.474;7.616;2024-01-10T06:32:49;98880;;;-8.2;69.9
27358;BME280;14831;50.474;7.616;2024-01-10T06:37:47;98890;;;-8.2;70.3
27358;BME280;14831;50.474;7.616;2024-01-10T06:42:47;98890;;;-8.1;70.0
27358;BME280;14831;50.474;7.616;2024-01-10T06:47:47;98890;;;-8.1;70.0
27358;BME280;14831;50.474;7.616;2024-01-10T06:52:47;98890;;;-8.0;69.6
27358;BME280;14831;50.474;7.616;2024-01-10T06:57:47;98890;;;-8.0;69.4
27358;BME280;14831;50.474;7.616;2024-01-10T07:02:47;98890;;;-8.0;69.0
27358;BME280;14831;50.474;7.616;2024-01-10T07:07:47;98890;;;-8.0;68.7
27358;BME280;14831;50.474;7.616;2024-01-10T07:12:48;98900;;;-8.0;68.8
27358;BME280;14831;50.474;7.616;2024-01-10T07:17:47;98910;;;-8.0;68.7
27358;BME280;14831;50.474;7.616;2024-01-10T07:22:47;98910;;;-8.1;68.6
27358;BME280;14831;50.474;7.616;2024-01-10T07:27:47;98920;;;-8.0;68.7
27358;BME280;14831;50.474;7.616;2024-01-10T07:32:47;98930;;;-8.0;68.7
27358;BME280;14831;50.474;7.616;2024-01-10T07:37:47;98920;;;-8.0;69.0
27358;BME280;14831;50.474;7.616;2024-01-10T07:42:47;98930;;;-8.0;69.4
27358;BME280;14831;50.474;7.616;2024-01-10T07:47:47;98930;;;-7.9;69.0
27358;BME280;14831;50.474;7.616;2024-01-10T07:52:47;98930;;;-7.8;69.5
27358;BME280;14831;50.474;7.616;2024-01-10T07:57:47;98940;;;-7.8;69.3
27358;BME280;14831;50.474;7.616;2024-01-10T08:02:47;98940;;;-7.7;70.2
27358;BME280;14831;50.474;7.616;2024-01-10T08:07:47;98930;;;-7.7;69.7
27358;BME280;14831;50.474;7.616;2024-01-10T08:12:47;98940;;;-7.6;69.5
27358;BME280;14831;50.474;7.616;2024-01-10T08:17:47;98940;;;-7.6;69.6
27358;BME280;14831;50.474;7.616;2024-01-10T08:22:47;98950;;;-7.5;69.5
27358;BME280;14831;50.474;7.616;2024-01-10T08:27:47;98940;;;-7.4;69.3
27358;BME280;14831;50.474;7.616;2024-01-10T08:32:47;98940;;;-7.3;68.7
27358;BME280;14831;50.474;7.616;2024-01-10T08:37:48;98950;;;-7.2;68.9
27358;BME280;14831;50.474;7.616;2024-01-10T08:42:47;98950;;;-7.1;68.5
27358;BME280;14831;50.474;7.616;2024-01-10T08:47:47;98950;;;-7.0;68.2
27358;BME280;14831;50.474;7.616;2024-01-10T08:52:47;98960;;;-6.8;67.7
27358;BME280;14831;50.474;7.616;2024-01-10T08:57:47;98960;;;-6.7;67.5
27358;BME280;14831;50.474;7.616;2024-01-10T09:02:47;98960;;;-6.6;67.0
27358;BME280;14831;50.474;7.616;2024-01-10T09:07:47;98960;;;-6.5;66.9
27358;BME280;14831;50.474;7.616;2024-01-10T09:12:47;98960;;;-6.4;66.7
27358;BME280;14831;50.474;7.616;2024-01-10T09:17:47;98970;;;-6.4;66.0
27358;BME280;14831;50.474;7.616;2024-01-10T09:22:47;98960;;;-6.3;65.2
27358;BME280;14831;50.474;7.616;2024-01-10T09:27:47;98970;;;-6.3;65.0
27358;BME280;14831;50.474;7.616;2024-01-10T09:32:47;98980;;;-6.2;64.6
27358;BME280;14831;50.474;7.616;2024-01-10T09:37:47;98980;;;-6.1;64.2
27358;BME280;14831;50.474;7.616;2024-01-10T09:42:47;98980;;;-6.1;64.2
27358;BME280;14831;50.474;7.616;2024-01-10T09:47:48;98970;;;-6.0;64.4
27358;BME280;14831;50.474;7.616;2024-01-10T09:52:49;98970;;;-5.9;64.1
27358;BME280;14831;50.474;7.616;2024-01-10T09:57:47;98970;;;-5.8;63.4
27358;BME280;14831;50.474;7.616;2024-01-10T10:02:47;98960;;;-5.8;63.5
27358;BME280;14831;50.474;7.616;2024-01-10T10:07:48;98970;;;-5.7;63.4
27358;BME280;14831;50.474;7.616;2024-01-10T10:12:48;98970;;;-5.5;62.7
27358;BME280;14831;50.474;7.616;2024-01-10T10:17:48;98960;;;-5.4;62.7
27358;BME280;14831;50.474;7.616;2024-01-10T10:22:57;98960;;;-5.1;62.1
27358;BME280;14831;50.474;7.616;2024-01-10T10:27:47;98960;;;-4.9;61.6
27358;BME280;14831;50.474;7.616;2024-01-10T10:32:47;98950;;;-4.9;61.0
27358;BME280;14831;50.474;7.616;2024-01-10T10:37:47;98960;;;-4.8;60.7
27358;BME280;14831;50.474;7.616;2024-01-10T10:42:48;98960;;;-4.7;60.7
27358;BME280;14831;50.474;7.616;2024-01-10T10:47:47;98960;;;-4.6;60.8
27358;BME280;14831;50.474;7.616;2024-01-10T10:52:47;98970;;;-4.5;60.1
27358;BME280;14831;50.474;7.616;2024-01-10T10:57:48;98960;;;-4.5;60.3
27358;BME280;14831;50.474;7.616;2024-01-10T11:02:47;98970;;;-4.5;60.5
27358;BME280;14831;50.474;7.616;2024-01-10T11:07:47;98970;;;-4.4;60.4
27358;BME280;14831;50.474;7.616;2024-01-10T11:12:53;98970;;;-4.3;60.3
27358;BME280;14831;50.474;7.616;2024-01-10T11:17:52;98970;;;-4.2;60.3
27358;BME280;14831;50.474;7.616;2024-01-10T11:22:52;98970;;;-4.3;59.9
27358;BME280;14831;50.474;7.616;2024-01-10T11:27:51;98960;;;-4.4;59.9
27358;BME280;14831;50.474;7.616;2024-01-10T11:32:47;98960;;;-4.4;60.3
27358;BME280;14831;50.474;7.616;2024-01-10T11:37:47;98960;;;-4.3;60.0
27358;BME280;14831;50.474;7.616;2024-01-10T11:42:47;98950;;;-4.4;59.4
27358;BME280;14831;50.474;7.616;2024-01-10T11:47:48;98950;;;-4.4;59.9
27358;BME280;14831;50.474;7.616;2024-01-10T11:52:47;98950;;;-4.3;59.7
27358;BME280;14831;50.474;7.616;2024-01-10T11:57:48;98930;;;-4.1;59.4
27358;BME280;14831;50.474;7.616;2024-01-10T12:02:47;98930;;;-4.0;59.5
27358;BME280;14831;50.474;7.616;2024-01-10T12:07:50;98930;;;-3.9;59.0
27358;BME280;14831;50.474;7.616;2024-01-10T12:12:47;98920;;;-3.8;59.6
27358;BME280;14831;50.474;7.616;2024-01-10T12:17:47;98920;;;-3.7;58.8
27358;BME280;14831;50.474;7.616;2024-01-10T12:22:47;98920;;;-3.7;58.5
27358;BME280;14831;50.474;7.616;2024-01-10T12:27:49;98920;;;-3.7;58.9
27358;BME280;14831;50.474;7.616;2024-01-10T12:32:50;98930;;;-3.7;59.2
27358;BME280;14831;50.474;7.616;2024-01-10T12:37:53;98930;;;-3.7;59.5
27358;BME280;14831;50.474;7.616;2024-01-10T12:42:47;98930;;;-3.8;60.1
27358;BME280;14831;50.474;7.616;2024-01-10T12:47:47;98930;;;-3.8;59.7
27358;BME280;14831;50.474;7.616;2024-01-10T12:52:47;98940;;;-3.8;59.9
27358;BME280;14831;50.474;7.616;2024-01-10T12:57:47;98930;;;-3.7;59.9
27358;BME280;14831;50.474;7.616;2024-01-10T13:02:47;98920;;;-3.4;60.0
27358;BME280;14831;50.474;7.616;2024-01-10T13:07:47;98920;;;-3.1;58.7
27358;BME280;14831;50.474;7.616;2024-01-10T13:12:47;98900;;;-2.7;58.0
27358;BME280;14831;50.474;7.616;2024-01-10T13:17:47;98900;;;-2.5;57.0
27358;BME280;14831;50.474;7.616;2024-01-10T13:22:47;98900;;;-2.2;56.0
27358;BME280;14831;50.474;7.616;2024-01-10T13:27:47;98900;;;-1.9;55.2
27358;BME280;14831;50.474;7.616;2024-01-10T13:32:47;98910;;;-1.5;54.0
27358;BME280;14831;50.474;7.616;2024-01-10T13:37:47;98910;;;-1.2;53.3
27358;BME280;14831;50.474;7.616;2024-01-10T13:42:47;98910;;;-1.0;52.6
27358;BME280;14831;50.474;7.616;2024-01-10T13:47:47;98920;;;-1.3;52.1
27358;BME280;14831;50.474;7.616;2024-01-10T13:52:47;98920;;;-1.1;52.7
27358;BME280;14831;50.474;7.616;2024-01-10T13:57:47;98920;;;-1.0;52.1
27358;BME280;14831;50.474;7.616;2024-01-10T14:02:47;98900;;;-1.1;52.3
27358;BME280;14831;50.474;7.616;2024-01-10T14:07:47;98900;;;-1.0;52.2
27358;BME280;14831;50.474;7.616;2024-01-10T14:12:47;98920;;;-1.3;52.4
27358;BME280;14831;50.474;7.616;2024-01-10T14:17:47;98920;;;-1.5;53.3
27358;BME280;14831;50.474;7.616;2024-01-10T14:22:47;98920;;;-1.7;53.5
27358;BME280;14831;50.474;7.616;2024-01-10T14:27:47;98920;;;-1.9;54.1
27358;BME280;14831;50.474;7.616;2024-01-10T14:32:49;98910;;;-2.0;54.3
27358;BME280;14831;50.474;7.616;2024-01-10T14:37:47;98910;;;-2.1;54.3
27358;BME280;14831;50.474;7.616;2024-01-10T14:42:47;98920;;;-2.2;55.3
27358;BME280;14831;50.474;7.616;2024-01-10T14:47:47;98920;;;-2.4;56.0
27358;BME280;14831;50.474;7.616;2024-01-10T14:52:47;98930;;;-2.6;56.7
27358;BME280;14831;50.474;7.616;2024-01-10T14:57:47;98920;;;-2.7;56.4
27358;BME280;14831;50.474;7.616;2024-01-10T15:02:47;98940;;;-2.8;57.3
27358;BME280;14831;50.474;7.616;2024-01-10T15:07:47;98950;;;-2.9;57.6
27358;BME280;14831;50.474;7.616;2024-01-10T15:12:47;98950;;;-3.0;57.7
27358;BME280;14831;50.474;7.616;2024-01-10T15:17:47;98960;;;-3.1;58.2
27358;BME280;14831;50.474;7.616;2024-01-10T15:22:47;98960;;;-3.2;58.7
27358;BME280;14831;50.474;7.616;2024-01-10T15:27:47;98970;;;-3.3;58.8
27358;BME280;14831;50.474;7.616;2024-01-10T15:32:48;98980;;;-3.5;59.6
27358;BME280;14831;50.474;7.616;2024-01-10T15:37:47;98980;;;-3.6;60.3
27358;BME280;14831;50.474;7.616;2024-01-10T15:42:47;98990;;;-3.7;61.3
27358;BME280;14831;50.474;7.616;2024-01-10T15:47:47;98980;;;-3.8;62.0
27358;BME280;14831;50.474;7.616;2024-01-10T15:52:47;98990;;;-4.0;62.2
27358;BME280;14831;50.474;7.616;2024-01-10T15:57:47;98990;;;-4.1;62.7
27358;BME280;14831;50.474;7.616;2024-01-10T16:02:47;99000;;;-4.2;63.2
27358;BME280;14831;50.474;7.616;2024-01-10T16:07:47;99000;;;-4.3;63.8
27358;BME280;14831;50.474;7.616;2024-01-10T16:12:47;99010;;;-4.4;64.3
27358;BME280;14831;50.474;7.616;2024-01-10T16:17:47;99000;;;-4.4;64.9
27358;BME280;14831;50.474;7.616;2024-01-10T16:22:47;99000;;;-4.5;65.0
27358;BME280;14831;50.474;7.616;2024-01-10T16:27:47;99010;;;-4.5;65.2
27358;BME280;14831;50.474;7.616;2024-01-10T16:32:47;99010;;;-4.6;65.9
27358;BME280;14831;50.474;7.616;2024-01-10T16:37:48;99010;;;-4.7;66.1
27358;BME280;14831;50.474;7.616;2024-01-10T16:42:47;99010;;;-4.7;66.0
27358;BME280;14831;50.474;7.616;2024-01-10T16:47:47;99020;;;-4.8;66.0
27358;BME280;14831;50.474;7.616;2024-01-10T16:52:47;99010;;;-4.8;66.3
27358;BME280;14831;50.474;7.616;2024-01-10T16:57:47;99010;;;-4.8;66.2
27358;BME280;14831;50.474;7.616;2024-01-10T17:02:47;99020;;;-4.9;66.9
27358;BME280;14831;50.474;7.616;2024-01-10T17:07:47;99020;;;-5.0;67.3
27358;BME280;14831;50.474;7.616;2024-01-10T17:12:47;99020;;;-5.0;67.5
27358;BME280;14831;50.474;7.616;2024-01-10T17:17:47;99010;;;-5.1;68.0
27358;BME280;14831;50.474;7.616;2024-01-10T17:22:47;99010;;;-5.1;68.2
27358;BME280;14831;50.474;7.616;2024-01-10T17:27:47;99020;;;-5.2;68.6
27358;BME280;14831;50.474;7.616;2024-01-10T17:32:47;99010;;;-5.2;68.7
27358;BME280;14831;50.474;7.616;2024-01-10T17:37:47;99020;;;-5.2;69.0
27358;BME280;14831;50.474;7.616;2024-01-10T17:42:47;99020;;;-5.2;68.9
27358;BME280;14831;50.474;7.616;2024-01-10T17:47:47;99020;;;-5.1;69.2
27358;BME280;14831;50.474;7.616;2024-01-10T17:52:47;99020;;;-5.1;69.0
27358;BME280;14831;50.474;7.616;2024-01-10T17:57:47;99030;;;-5.2;69.4
27358;BME280;14831;50.474;7.616;2024-01-10T18:02:47;99030;;;-5.2;69.7
27358;BME280;14831;50.474;7.616;2024-01-10T18:07:47;99020;;;-5.2;69.9
27358;BME280;14831;50.474;7.616;2024-01-10T18:12:47;99020;;;-5.2;70.0
27358;BME280;14831;50.474;7.616;2024-01-10T18:17:47;99020;;;-5.2;70.1
27358;BME280;14831;50.474;7.616;2024-01-10T18:22:50;99030;;;-5.2;70.1
27358;BME280;14831;50.474;7.616;2024-01-10T18:27:47;99030;;;-5.2;70.2
27358;BME280;14831;50.474;7.616;2024-01-10T18:32:47;99030;;;-5.3;70.3
27358;BME280;14831;50.474;7.616;2024-01-10T18:37:47;99040;;;-5.3;70.7
27358;BME280;14831;50.474;7.616;2024-01-10T18:42:47;99040;;;-5.3;71.1
27358;BME280;14831;50.474;7.616;2024-01-10T18:47:47;99050;;;-5.3;71.1
27358;BME280;14831;50.474;7.616;2024-01-10T18:52:47;99050;;;-5.4;71.3
27358;BME280;14831;50.474;7.616;2024-01-10T18:57:47;99050;;;-5.4;71.6
27358;BME280;14831;50.474;7.616;2024-01-10T19:02:48;99070;;;-5.4;71.9
27358;BME280;14831;50.474;7.616;2024-01-10T19:07:47;99060;;;-5.5;72.0
27358;BME280;14831;50.474;7.616;2024-01-10T19:12:47;99070;;;-5.4;71.9
27358;BME280;14831;50.474;7.616;2024-01-10T19:17:47;99080;;;-5.4;71.7
27358;BME280;14831;50.474;7.616;2024-01-10T19:22:47;99090;;;-5.5;71.6
27358;BME280;14831;50.474;7.616;2024-01-10T19:27:47;99080;;;-5.5;71.8
27358;BME280;14831;50.474;7.616;2024-01-10T19:32:47;99080;;;-5.5;72.0
27358;BME280;14831;50.474;7.616;2024-01-10T19:37:47;99080;;;-5.5;72.0
27358;BME280;14831;50.474;7.616;2024-01-10T19:42:47;99090;;;-5.5;72.1
27358;BME280;14831;50.474;7.616;2024-01-10T19:47:47;99100;;;-5.5;72.2
27358;BME280;14831;50.474;7.616;2024-01-10T19:52:47;99090;;;-5.5;72.2
27358;BME280;14831;50.474;7.616;2024-01-10T19:57:47;99090;;;-5.5;72.6
27358;BME280;14831;50.474;7.616;2024-01-10T20:02:47;99100;;;-5.6;72.6
27358;BME280;14831;50.474;7.616;2024-01-10T20:07:47;99100;;;-5.7;72.7
27358;BME280;14831;50.474;7.616;2024-01-10T20:12:47;99120;;;-5.8;72.9
27358;BME280;14831;50.474;7.616;2024-01-10T20:17:47;99120;;;-5.8;73.2
27358;BME280;14831;50.474;7.616;2024-01-10T20:22:48;99120;;;-5.9;73.5
27358;BME280;14831;50.474;7.616;2024-01-10T20:27:49;99120;;;-5.9;73.5
27358;BME280;14831;50.474;7.616;2024-01-10T20:32:47;99120;;;-6.0;73.8
27358;BME280;14831;50.474;7.616;2024-01-10T20:37:47;99120;;;-6.0;74.0
27358;BME280;14831;50.474;7.616;2024-01-10T20:42:47;99120;;;-5.9;74.1
27358;BME280;14831;50.474;7.616;2024-01-10T20:47:48;99130;;;-5.9;74.1
27358;BME280;14831;50.474;7.616;2024-01-10T20:52:47;99130;;;-5.9;74.4
27358;BME280;14831;50.474;7.616;2024-01-10T20:57:47;99120;;;-5.9;74.4
27358;BME280;14831;50.474;7.616;2024-01-10T21:02:47;99130;;;-5.9;74.1
27358;BME280;14831;50.474;7.616;2024-01-10T21:07:47;99130;;;-6.1;74.4
27358;BME280;14831;50.474;7.616;2024-01-10T21:12:47;99110;;;-6.1;74.3
27358;BME280;14831;50.474;7.616;2024-01-10T21:17:47;99110;;;-6.2;74.3
27358;BME280;14831;50.474;7.616;2024-01-10T21:22:47;99110;;;-6.2;75.0
27358;BME280;14831;50.474;7.616;2024-01-10T21:27:47;99110;;;-6.2;74.7
27358;BME280;14831;50.474;7.616;2024-01-10T21:32:47;99100;;;-6.3;74.7
27358;BME280;14831;50.474;7.616;2024-01-10T21:37:47;99100;;;-6.3;75.3
27358;BME280;14831;50.474;7.616;2024-01-10T21:42:47;99100;;;-6.4;75.1
27358;BME280;14831;50.474;7.616;2024-01-10T21:47:47;99100;;;-6.4;75.0
27358;BME280;14831;50.474;7.616;2024-01-10T21:52:47;99110;;;-6.5;75.1
27358;BME280;14831;50.474;7.616;2024-01-10T21:57:47;99100;;;-6.5;76.0
27358;BME280;14831;50.474;7.616;2024-01-10T22:02:47;99110;;;-6.6;76.0
27358;BME280;14831;50.474;7.616;2024-01-10T22:07:47;99110;;;-6.6;75.8
27358;BME280;14831;50.474;7.616;2024-01-10T22:12:47;99120;;;-6.6;75.8
27358;BME280;14831;50.474;7.616;2024-01-10T22:17:47;99120;;;-6.7;76.5
27358;BME280;14831;50.474;7.616;2024-01-10T22:22:47;99120;;;-6.9;76.6
27358;BME280;14831;50.474;7.616;2024-01-10T22:27:47;99120;;;-7.0;77.1
27358;BME280;14831;50.474;7.616;2024-01-10T22:32:49;99130;;;-7.0;77.2
27358;BME280;14831;50.474;7.616;2024-01-10T22:37:47;99120;;;-7.1;77.2
27358;BME280;14831;50.474;7.616;2024-01-10T22:42:47;99110;;;-7.2;77.8
27358;BME280;14831;50.474;7.616;2024-01-10T22:47:47;99120;;;-7.3;78.7
27358;BME280;14831;50.474;7.616;2024-01-10T22:52:47;99120;;;-7.4;78.6
27358;BME280;14831;50.474;7.616;2024-01-10T22:57:47;99130;;;-7.4;79.0
27358;BME280;14831;50.474;7.616;2024-01-10T23:02:47;99140;;;-7.5;79.4
27358;BME280;14831;50.474;7.616;2024-01-10T23:07:47;99130;;;-7.5;79.6
27358;BME280;14831;50.474;7.616;2024-01-10T23:12:48;99130;;;-7.6;80.2
27358;BME280;14831;50.474;7.616;2024-01-10T23:17:47;99130;;;-7.7;80.6
27358;BME280;14831;50.474;7.616;2024-01-10T23:22:47;99140;;;-7.7;80.8
27358;BME280;14831;50.474;7.616;2024-01-10T23:27:47;99140;;;-7.7;80.6
27358;BME280;14831;50.474;7.616;2024-01-10T23:32:47;99150;;;-7.7;80.8
27358;BME280;14831;50.474;7.616;2024-01-10T23:37:47;99160;;;-7.8;81.3
27358;BME280;14831;50.474;7.616;2024-01-10T23:42:47;99150;;;-7.9;82.4
27358;BME280;14831;50.474;7.616;2024-01-10T23:47:47;99160;;;-7.8;83.4
27358;BME280;14831;50.474;7.616;2024-01-10T23:52:47;99160;;;-7.6;83.1
27358;BME280;14831;50.474;7.616;2024-01-10T23:57:47;99150;;;-7.8;82.9
